»·PEaware :: UAL1579 KTUS-KABQ

UAL1579 :: KTUS-KABQ

FLIGHT INFORMATION

Flight Status: Arrived
Operator:
United Airlines
More flights by this operator :: More flights under this callsign
Pilot: Utku A. (15598)
Aircraft: BOEING 737-800
(B738)
More flights by this aircraft type
Origin: KTUS Tucson Intl
United States
Destination: KABQ Albuquerque Intl Sunport
United States
More flights between these airports :: More routes between these airports
Route: TUS8 REDDY SSO J104 ONM
File this flight plan on PilotEdge
Remarks: Testing FSGlobal Real Wx addon in TS & bad weather
Altitude:
(Current/Filed)
33,000ft
Speed:
(Current/Filed)
443kts
Departed: 09-Aug-18 07:05 PM
Arrived: 09-Aug-18 08:00 PM
Distance/Time
Traveled:
279nm/0:54
Distance/Time
To Go:
Arrived

Flight Plot

Page will automatically refresh every two minutes.

Flight plan parsing failed; only flown route is shown


Map Options




Map Legend


Flown Route
Filed Route
Departure Airport
Arrival Airport
Navaid (VOR, NDB)
Fix

Horizontal Profiles

Position Reports

Time Latitude Longitude Heading Altitude Ground
Speed
09-Aug-18 18:41 32.119306 -110.937768 86 2602ft 0kts
09-Aug-18 18:42 32.119306 -110.937768 86 2602ft 0kts
09-Aug-18 18:43 32.119306 -110.937768 86 2602ft 0kts
09-Aug-18 18:44 32.119306 -110.937768 86 2602ft 0kts
09-Aug-18 18:45 32.119306 -110.937768 86 2602ft 0kts
09-Aug-18 18:46 32.119306 -110.937768 86 2602ft 0kts
09-Aug-18 18:47 32.119306 -110.937768 86 2602ft 0kts
09-Aug-18 18:48 32.119306 -110.937768 86 2602ft 0kts
09-Aug-18 18:49 32.119306 -110.937768 86 2602ft 0kts
09-Aug-18 18:50 32.119306 -110.937768 86 2602ft 0kts
09-Aug-18 18:51 32.119306 -110.937768 86 2602ft 0kts
09-Aug-18 18:52 32.119306 -110.937768 86 2602ft 0kts
09-Aug-18 18:53 32.119299 -110.937926 86 2602ft 2kts
09-Aug-18 18:54 32.119567 -110.938477 169 2600ft 2kts
09-Aug-18 18:55 32.119925 -110.938324 224 2600ft 0kts
09-Aug-18 18:56 32.119925 -110.938325 224 2600ft 0kts
09-Aug-18 18:57 32.119925 -110.938325 224 2600ft 0kts
09-Aug-18 18:58 32.119474 -110.938838 225 2600ft 4kts
09-Aug-18 18:59 32.118158 -110.939273 133 2603ft 6kts
09-Aug-18 19:00 32.116168 -110.936935 135 2610ft 13kts
09-Aug-18 19:01 32.112660 -110.932832 135 2621ft 19kts
09-Aug-18 19:02 32.109606 -110.929253 135 2631ft 12kts
09-Aug-18 19:03 32.107308 -110.926561 135 2639ft 18kts
09-Aug-18 19:04 32.103742 -110.922376 137 2654ft 14kts
09-Aug-18 19:05 32.103132 -110.924140 315 2649ft 19kts
09-Aug-18 19:06 32.127861 -110.952962 315 3274ft 180kts
09-Aug-18 19:07 32.171781 -110.973425 44 5180ft 206kts
09-Aug-18 19:08 32.199930 -110.913047 65 6831ft 235kts
09-Aug-18 19:09 32.230803 -110.834988 65 8135ft 296kts
09-Aug-18 19:10 32.266731 -110.744503 65 10380ft 326kts
09-Aug-18 19:11 32.306240 -110.645328 65 12764ft 342kts
09-Aug-18 19:12 32.330058 -110.537203 93 15083ft 350kts
09-Aug-18 19:13 32.324900 -110.420459 94 17226ft 362kts
09-Aug-18 19:14 32.319522 -110.301522 95 19208ft 373kts
09-Aug-18 19:15 32.313900 -110.177287 94 21104ft 384kts
09-Aug-18 19:16 32.308032 -110.049424 94 22819ft 395kts
09-Aug-18 19:17 32.301906 -109.918384 94 24331ft 407kts
09-Aug-18 19:18 32.295466 -109.783330 94 25771ft 417kts
09-Aug-18 19:19 32.288744 -109.645317 94 27084ft 426kts
09-Aug-18 19:20 32.281723 -109.504272 94 28296ft 435kts
09-Aug-18 19:21 32.274401 -109.360358 94 29536ft 441kts
09-Aug-18 19:22 32.302386 -109.226619 52 30914ft 440kts
09-Aug-18 19:23 32.388196 -109.125169 43 32076ft 441kts
09-Aug-18 19:24 32.476884 -109.024258 42 33002ft 447kts
09-Aug-18 19:25 32.567578 -108.920716 42 33215ft 467kts
09-Aug-18 19:26 32.663277 -108.810725 42 33216ft 491kts
09-Aug-18 19:27 32.758056 -108.701106 42 33290ft 496kts
09-Aug-18 19:28 32.856398 -108.586770 42 33270ft 497kts
09-Aug-18 19:29 32.954548 -108.472452 42 33290ft 496kts
09-Aug-18 19:30 33.052625 -108.358170 41 33295ft 492kts
09-Aug-18 19:31 33.145556 -108.250034 41 33287ft 488kts
09-Aug-18 19:32 33.242557 -108.137012 41 33289ft 489kts
09-Aug-18 19:33 33.339552 -108.022956 41 33277ft 489kts
09-Aug-18 19:34 33.435050 -107.908630 42 33241ft 490kts
09-Aug-18 19:35 33.523632 -107.801756 42 33240ft 492kts
09-Aug-18 19:36 33.619547 -107.686041 41 33235ft 492kts
09-Aug-18 19:37 33.715787 -107.569872 41 33029ft 487kts
09-Aug-18 19:38 33.809805 -107.455157 41 31709ft 477kts
09-Aug-18 19:39 33.900599 -107.346792 42 29630ft 461kts
09-Aug-18 19:40 33.991432 -107.238064 42 26568ft 464kts
09-Aug-18 19:41 34.081722 -107.129791 43 24267ft 443kts
09-Aug-18 19:42 34.169879 -107.024084 43 24260ft 458kts
09-Aug-18 19:43 34.260293 -106.915734 43 24265ft 462kts
09-Aug-18 19:44 34.348658 -106.803043 48 24292ft 462kts
09-Aug-18 19:45 34.430707 -106.694704 48 22819ft 424kts
09-Aug-18 19:46 34.509350 -106.593331 47 20815ft 405kts
09-Aug-18 19:47 34.585384 -106.496980 47 18854ft 388kts
09-Aug-18 19:48 34.667400 -106.422696 10 17274ft 369kts
09-Aug-18 19:49 34.757813 -106.461766 314 15521ft 353kts
09-Aug-18 19:50 34.824221 -106.543316 313 13761ft 345kts
09-Aug-18 19:51 34.890299 -106.625234 314 12253ft 329kts
09-Aug-18 19:52 34.923509 -106.715744 277 11885ft 284kts
09-Aug-18 19:53 34.932587 -106.806445 276 10267ft 255kts
09-Aug-18 19:54 34.944415 -106.888871 320 9373ft 224kts
09-Aug-18 19:55 35.004354 -106.894550 27 9182ft 225kts
09-Aug-18 19:56 35.054044 -106.854728 76 8313ft 218kts
09-Aug-18 19:57 35.045417 -106.783712 91 7985ft 212kts
09-Aug-18 19:58 35.044927 -106.721489 90 6971ft 161kts
09-Aug-18 19:59 35.044644 -106.666686 89 6087ft 159kts
09-Aug-18 20:00 35.044288 -106.613012 89 5317ft 150kts
09-Aug-18 20:01 35.044922 -106.591789 63 5329ft 19kts
09-Aug-18 20:02 35.045838 -106.593015 269 5329ft 8kts
09-Aug-18 20:03 35.045862 -106.597690 270 5325ft 18kts
09-Aug-18 20:05 35.045802 -106.608735 270 5320ft 20kts
09-Aug-18 20:06 35.045713 -106.616501 341 5315ft 9kts
09-Aug-18 20:07 35.046907 -106.616387 10 5313ft 0kts

Navigation Log

Ident Type
Flight plan parsing failed, navigation log unavailable